Yuba County Airport Marysville US
ICAO: KMYV
IATA: MYV
Category: Medium
Scheduled Services: No

Elevation: 64 ft
TransAlt. 18000 ft.

Airport Communications:
NORCAL APP/DEP:125.4
ASOS:118.475
RANCHO RDO:122.6
CTAF/UNICOM:123.05

KMYV Zoom In..

If Map Doesn't Load, Click Here

Runways:

(A) RW 05 length 3281 ft width 60 ft
---- / hdg 51

(B) RW 14 length 6006 ft width 150 ft
ILS 110.50 / hdg 141

(C) RW 23 length 3281 ft width 60 ft
---- / hdg 231

(D) RW 32 length 6006 ft width 150 ft
---- / hdg 321

Location; KMYV
Day. 26 / Time. 09.53 Zulu
* Altimeter: 29.93
* Temperature: 13° c. 55.4°f.
* Wind from: 150° Speed 03 kn.
Dewpoint: 06° c.
Visibility: 10 Statute Miles.
Clouds: Clear (automated report).

KMYV 260953Z AUTO 15003KT 10SM CLR 13/06 A2993 RMK AO2 SLP137 T01330056 $


Wind From 150°
Speed 03 kn.

 
 
jpsmedia.com for Web Design worldairports.se 2018   terms of use